Time;durP1;ratioP1;P1;durP2;ratioP2;P2;SDS_P1;SDS_P2;PMS_P1;PMS_P2;Temp;Humidity;BMP_temperature;BMP_pressure;BME280_temperature;BME280_humidity;BME280_pressure;Samples;Min_cycle;Max_cycle;Signal;HPM_P1;HPM_P2
2023/01/01 00:00:55;;;;;;;380.95;268.17;;;7.00;99.90;;;;;;5002812;28;20034;-75
2023/01/01 00:03:20;;;;;;;391.98;280.80;;;6.90;99.90;;;;;;5004408;28;20093;-76
2023/01/01 00:05:46;;;;;;;362.55;261.17;;;7.00;99.90;;;;;;4994172;28;20089;-78
2023/01/01 00:08:12;;;;;;;353.90;255.93;;;7.00;99.90;;;;;;4997509;28;20032;-79
2023/01/01 00:10:38;;;;;;;358.17;249.43;;;7.00;99.90;;;;;;5006358;28;20021;-77
2023/01/01 00:13:04;;;;;;;386.30;269.17;;;7.00;99.90;;;;;;5012170;28;20065;-74
2023/01/01 00:15:30;;;;;;;362.38;260.63;;;7.00;99.90;;;;;;4995056;28;20026;-75
2023/01/01 00:17:56;;;;;;;388.42;269.92;;;7.00;99.90;;;;;;4993807;28;20390;-79
2023/01/01 00:20:22;;;;;;;394.25;272.45;;;7.00;99.90;;;;;;4993627;28;20033;-76
2023/01/01 00:22:48;;;;;;;381.02;267.50;;;7.00;99.90;;;;;;4993695;28;20049;-78
2023/01/01 00:25:14;;;;;;;384.88;268.15;;;7.10;99.90;;;;;;5002750;28;20034;-77
2023/01/01 00:27:41;;;;;;;376.73;259.85;;;7.10;99.90;;;;;;4995419;28;20050;-75
2023/01/01 00:30:08;;;;;;;349.23;247.07;;;7.10;99.90;;;;;;4999147;28;20034;-76
2023/01/01 00:32:34;;;;;;;355.20;245.18;;;7.00;99.90;;;;;;4995721;28;20109;-77
2023/01/01 00:34:59;;;;;;;312.30;211.30;;;7.00;99.90;;;;;;4993205;28;20101;-76
2023/01/01 00:37:27;;;;;;;338.70;232.82;;;7.00;99.90;;;;;;4986151;28;20030;-73
2023/01/01 00:39:53;;;;;;;277.10;191.00;;;6.90;99.90;;;;;;4994961;28;20027;-75
2023/01/01 00:42:19;;;;;;;223.68;151.90;;;6.90;99.90;;;;;;4993508;28;20022;-74
2023/01/01 00:44:45;;;;;;;166.45;108.63;;;6.90;99.90;;;;;;4992646;28;20402;-77
2023/01/01 00:47:11;;;;;;;124.60;83.43;;;6.80;99.90;;;;;;4995940;28;20030;-74
2023/01/01 00:49:37;;;;;;;115.70;78.43;;;6.80;99.90;;;;;;4996959;28;20233;-78
2023/01/01 00:52:03;;;;;;;93.93;65.43;;;6.70;99.90;;;;;;4999450;28;20546;-75
2023/01/01 00:54:28;;;;;;;113.97;75.53;;;6.70;99.90;;;;;;4993467;28;20031;-77
2023/01/01 00:56:56;;;;;;;156.27;97.22;;;6.70;99.90;;;;;;4993117;28;20041;-76
2023/01/01 00:59:22;;;;;;;116.28;74.20;;;6.80;99.90;;;;;;4993017;28;20109;-79
2023/01/01 01:01:48;;;;;;;106.53;73.57;;;6.80;99.90;;;;;;4993389;28;20134;-77
2023/01/01 01:04:13;;;;;;;104.38;68.90;;;6.80;99.90;;;;;;4993317;28;20022;-77
2023/01/01 01:06:39;;;;;;;173.40;110.55;;;6.70;99.90;;;;;;4993659;28;20042;-76
2023/01/01 01:09:06;;;;;;;178.07;110.30;;;6.80;99.90;;;;;;5000568;28;20018;-76
2023/01/01 01:11:32;;;;;;;158.90;100.32;;;6.70;99.90;;;;;;4998819;28;20569;-76
2023/01/01 01:13:58;;;;;;;120.43;79.38;;;6.70;99.90;;;;;;4993463;28;20050;-80
2023/01/01 01:16:31;;;;;;;107.13;68.88;;;6.70;99.90;;;;;;4993302;28;20451;-76
2023/01/01 01:18:59;;;;;;;120.85;78.03;;;6.80;99.90;;;;;;4993476;28;20458;-74
2023/01/01 01:21:29;;;;;;;124.25;81.28;;;6.80;99.90;;;;;;4991868;28;20129;-74
2023/01/01 01:23:57;;;;;;;192.13;120.18;;;6.80;99.90;;;;;;4992655;28;20077;-77
2023/01/01 01:26:26;;;;;;;155.98;101.43;;;6.70;99.90;;;;;;5005543;28;20030;-76
2023/01/01 01:28:52;;;;;;;115.97;71.93;;;6.70;99.90;;;;;;4996882;28;20054;-74
2023/01/01 01:31:20;;;;;;;101.80;69.50;;;6.70;99.90;;;;;;4996833;28;20026;-77
2023/01/01 01:33:47;;;;;;;111.95;75.22;;;6.70;99.90;;;;;;4996886;28;20030;-77
2023/01/01 01:36:14;;;;;;;134.10;94.68;;;6.70;99.90;;;;;;4996594;28;20029;-73
2023/01/01 01:38:41;;;;;;;167.25;114.45;;;6.70;99.90;;;;;;4978789;28;20027;-74
2023/01/01 01:41:07;;;;;;;164.48;111.53;;;6.70;99.90;;;;;;4996720;28;20093;-78
2023/01/01 01:43:33;;;;;;;146.13;103.40;;;6.70;99.90;;;;;;4996634;28;20023;-74
2023/01/01 01:46:32;;;;;;;124.03;82.50;;;6.70;99.90;;;;;;4996568;28;20034;-77
2023/01/01 01:49:21;;;;;;;137.40;90.40;;;6.70;99.90;;;;;;4955664;28;20039;-75
2023/01/01 01:51:48;;;;;;;101.63;66.82;;;6.60;99.90;;;;;;4955264;28;20039;-74
2023/01/01 01:54:19;;;;;;;69.28;47.95;;;6.60;99.90;;;;;;4939888;29;20035;-74
2023/01/01 01:56:52;;;;;;;83.40;55.63;;;6.60;99.90;;;;;;4952770;29;20571;-76
2023/01/01 01:59:19;;;;;;;83.55;58.67;;;6.50;99.90;;;;;;4953773;28;20054;-76
2023/01/01 02:01:45;;;;;;;98.40;63.45;;;6.50;99.90;;;;;;4955138;28;20039;-75
2023/01/01 02:04:11;;;;;;;106.78;75.70;;;6.50;99.90;;;;;;4955722;29;20034;-73
2023/01/01 02:06:38;;;;;;;85.97;61.42;;;6.50;99.90;;;;;;4955263;28;20495;-75
2023/01/01 02:09:06;;;;;;;78.90;56.50;;;6.40;99.90;;;;;;4955302;28;20395;-74
2023/01/01 02:11:32;;;;;;;81.03;55.15;;;6.40;99.90;;;;;;4955355;29;20086;-73
2023/01/01 02:14:00;;;;;;;73.57;52.97;;;6.50;99.90;;;;;;4950654;29;20406;-74
2023/01/01 02:16:47;;;;;;;76.47;57.25;;;6.40;99.90;;;;;;4945323;28;20119;-75
2023/01/01 02:19:31;;;;;;;75.70;53.80;;;6.40;99.90;;;;;;4943757;29;20043;-74
2023/01/01 02:22:34;;;;;;;76.32;52.83;;;6.40;99.90;;;;;;4946110;29;20507;-73
2023/01/01 02:25:24;;;;;;;77.50;53.13;;;6.40;99.90;;;;;;4958588;28;20037;-73
2023/01/01 02:28:18;;;;;;;65.53;47.72;;;6.40;99.90;;;;;;5004960;28;20355;-74
2023/01/01 02:30:46;;;;;;;76.53;52.97;;;6.40;99.90;;;;;;5005490;28;20076;-73
2023/01/01 02:33:21;;;;;;;66.28;44.85;;;6.30;99.90;;;;;;5006099;28;20014;-75
2023/01/01 02:35:58;;;;;;;73.00;50.25;;;6.40;99.90;;;;;;5006129;28;20129;-75
2023/01/01 02:38:35;;;;;;;66.63;44.05;;;6.30;99.90;;;;;;5004244;28;20114;-74
2023/01/01 02:41:07;;;;;;;67.03;45.20;;;6.40;99.90;;;;;;5004611;28;20477;-74
2023/01/01 02:43:33;;;;;;;66.65;47.22;;;6.40;99.90;;;;;;5002526;28;20068;-74
2023/01/01 02:46:04;;;;;;;66.28;45.33;;;6.30;99.90;;;;;;5000709;28;20370;-73
2023/01/01 02:48:46;;;;;;;64.60;45.72;;;6.30;99.90;;;;;;4998788;28;20359;-72
2023/01/01 02:51:36;;;;;;;81.82;55.10;;;6.30;99.90;;;;;;5000889;28;20049;-74
2023/01/01 02:54:12;;;;;;;77.43;50.63;;;6.40;99.90;;;;;;5002569;28;20023;-74
2023/01/01 02:56:48;;;;;;;59.92;44.78;;;6.30;99.90;;;;;;4995183;28;20489;-74
2023/01/01 03:02:45;;;;;;;70.65;47.38;;;6.20;99.90;;;;;;4994767;28;20042;-73
2023/01/01 03:05:22;;;;;;;68.63;48.38;;;6.10;99.90;;;;;;4995050;28;20054;-74
2023/01/01 03:08:14;;;;;;;74.55;48.47;;;6.10;99.90;;;;;;4992479;28;20034;-74
2023/01/01 03:11:12;;;;;;;77.10;49.80;;;6.00;99.90;;;;;;4996911;28;20032;-74
2023/01/01 03:13:50;;;;;;;71.85;49.97;;;6.00;99.90;;;;;;4995255;28;20117;-74
2023/01/01 03:16:25;;;;;;;73.72;47.50;;;6.00;99.90;;;;;;4995009;28;20113;-73
2023/01/01 03:19:09;;;;;;;72.55;51.88;;;6.00;99.90;;;;;;4995050;28;20022;-74
2023/01/01 03:21:38;;;;;;;65.28;47.72;;;6.00;99.90;;;;;;4994738;28;20386;-73
2023/01/01 03:24:05;;;;;;;71.30;48.90;;;6.10;99.90;;;;;;4994714;28;20382;-74
2023/01/01 03:26:36;;;;;;;74.10;50.88;;;6.10;99.90;;;;;;4995152;28;20053;-74
2023/01/01 03:29:04;;;;;;;74.10;48.90;;;6.10;99.90;;;;;;4994774;28;20133;-73
2023/01/01 03:31:32;;;;;;;69.55;46.42;;;6.10;99.90;;;;;;4994642;28;20030;-73
2023/01/01 03:34:05;;;;;;;66.57;45.90;;;6.10;99.90;;;;;;4994660;28;20036;-74
2023/01/01 03:36:41;;;;;;;68.43;48.47;;;6.00;99.90;;;;;;4994566;28;20022;-74
2023/01/01 03:39:32;;;;;;;93.10;61.13;;;6.10;99.90;;;;;;4983369;28;20026;-73
2023/01/01 03:42:11;;;;;;;75.28;53.83;;;6.00;99.90;;;;;;4994505;28;20034;-74
2023/01/01 03:44:43;;;;;;;97.20;65.90;;;6.10;99.90;;;;;;4994514;28;20030;-74
2023/01/01 03:47:09;;;;;;;100.20;71.63;;;6.10;99.90;;;;;;4994487;28;20018;-74
2023/01/01 03:49:35;;;;;;;92.32;63.78;;;6.10;99.90;;;;;;4993927;28;20037;-74
2023/01/01 03:52:25;;;;;;;96.18;64.32;;;6.10;99.90;;;;;;4994307;28;20028;-73
2023/01/01 03:55:05;;;;;;;153.90;88.90;;;6.10;99.90;;;;;;4994250;28;20105;-73
2023/01/01 03:57:49;;;;;;;81.47;52.50;;;6.10;99.90;;;;;;4994187;28;20026;-74
2023/01/01 04:00:37;;;;;;;87.28;54.42;;;6.10;99.90;;;;;;4994336;28;20383;-73
2023/01/01 04:03:12;;;;;;;97.60;64.25;;;6.00;99.90;;;;;;4993738;28;20126;-74
2023/01/01 04:05:40;;;;;;;118.15;77.38;;;5.90;99.90;;;;;;4994244;28;20034;-73
2023/01/01 04:08:06;;;;;;;118.80;78.07;;;5.90;99.90;;;;;;4994012;28;20022;-75
2023/01/01 04:10:35;;;;;;;127.32;74.82;;;5.90;99.90;;;;;;4994124;28;20026;-72
2023/01/01 04:13:04;;;;;;;102.45;70.05;;;5.80;99.90;;;;;;4994127;28;20018;-73
2023/01/01 04:15:31;;;;;;;128.38;86.00;;;5.80;99.90;;;;;;4994025;28;20034;-73
2023/01/01 04:17:57;;;;;;;140.13;90.88;;;5.80;99.90;;;;;;4994041;28;20378;-73
2023/01/01 04:20:23;;;;;;;114.45;76.55;;;5.80;99.90;;;;;;4993678;28;20524;-73
2023/01/01 04:22:49;;;;;;;112.03;73.95;;;5.90;99.90;;;;;;4993945;28;20061;-72
2023/01/01 04:25:16;;;;;;;123.88;80.68;;;5.90;99.90;;;;;;4993973;28;20481;-74
2023/01/01 04:27:43;;;;;;;117.32;81.57;;;5.90;99.90;;;;;;4993951;28;20030;-73
2023/01/01 04:30:11;;;;;;;108.72;73.50;;;5.90;99.90;;;;;;4993681;28;20076;-74
2023/01/01 04:32:38;;;;;;;116.60;74.70;;;5.80;99.90;;;;;;4993818;28;20033;-74
2023/01/01 04:35:05;;;;;;;136.50;90.07;;;5.60;99.90;;;;;;4993991;28;20088;-72
2023/01/01 04:37:30;;;;;;;127.57;89.82;;;5.50;99.90;;;;;;4993910;28;20041;-72
2023/01/01 04:39:56;;;;;;;127.03;83.63;;;5.60;99.90;;;;;;4993692;28;20031;-74
2023/01/01 04:42:22;;;;;;;121.72;81.35;;;5.60;99.90;;;;;;4993528;28;20477;-73
2023/01/01 04:44:48;;;;;;;102.65;71.95;;;5.50;99.90;;;;;;4993382;28;20018;-74
2023/01/01 04:47:14;;;;;;;136.02;90.45;;;5.50;99.90;;;;;;4993765;28;20034;-73
2023/01/01 04:49:39;;;;;;;120.72;85.07;;;5.50;99.90;;;;;;4993264;28;20033;-73
2023/01/01 04:52:05;;;;;;;123.40;88.00;;;5.50;99.90;;;;;;4993741;28;20015;-74
2023/01/01 04:54:31;;;;;;;114.32;83.88;;;5.50;99.90;;;;;;4993074;28;20073;-74
2023/01/01 04:56:57;;;;;;;120.88;83.07;;;5.50;99.90;;;;;;4993331;28;20023;-74
2023/01/01 04:59:23;;;;;;;136.25;79.50;;;5.50;99.90;;;;;;4993532;28;20026;-74
2023/01/01 05:01:49;;;;;;;114.60;79.03;;;5.50;99.90;;;;;;4994586;28;20129;-74
2023/01/01 05:04:15;;;;;;;124.22;81.57;;;5.50;99.90;;;;;;4997271;28;20077;-74
2023/01/01 05:06:41;;;;;;;137.13;92.35;;;5.60;99.90;;;;;;4997560;28;20436;-74
2023/01/01 05:09:11;;;;;;;120.45;81.05;;;5.60;99.90;;;;;;4997639;28;20037;-74
2023/01/01 05:11:37;;;;;;;105.70;74.40;;;5.50;99.90;;;;;;4997614;28;20491;-74
2023/01/01 05:14:03;;;;;;;104.32;72.78;;;5.60;99.90;;;;;;4997086;28;20022;-74
2023/01/01 05:16:31;;;;;;;107.45;72.22;;;5.70;99.90;;;;;;4997172;28;20022;-74
2023/01/01 05:18:58;;;;;;;106.55;71.30;;;5.70;99.90;;;;;;4996702;28;20513;-74
2023/01/01 05:21:30;;;;;;;107.68;70.32;;;5.70;99.90;;;;;;4996830;28;20096;-74
2023/01/01 05:23:59;;;;;;;94.72;66.70;;;5.70;99.90;;;;;;4997195;28;20033;-74
2023/01/01 05:26:28;;;;;;;91.70;64.20;;;5.70;99.90;;;;;;4997471;28;20121;-74
2023/01/01 05:28:55;;;;;;;79.78;54.63;;;5.70;99.90;;;;;;4996911;28;20046;-74
2023/01/01 05:31:23;;;;;;;83.82;52.88;;;5.70;99.90;;;;;;4996860;28;20031;-73
2023/01/01 05:33:51;;;;;;;84.85;55.40;;;5.70;99.90;;;;;;4997131;28;20041;-74
2023/01/01 05:36:22;;;;;;;74.38;49.35;;;5.70;99.90;;;;;;4997023;28;20101;-73
2023/01/01 05:38:49;;;;;;;84.05;48.15;;;5.70;99.90;;;;;;4996751;28;20108;-73
2023/01/01 05:41:16;;;;;;;69.85;40.13;;;5.80;99.90;;;;;;4996761;28;20035;-73
2023/01/01 05:43:42;;;;;;;66.35;37.55;;;5.80;99.90;;;;;;4996710;28;20393;-74
2023/01/01 05:46:14;;;;;;;70.05;42.58;;;5.80;99.90;;;;;;4996826;28;20023;-73
2023/01/01 05:48:41;;;;;;;68.10;41.33;;;5.80;99.90;;;;;;4964742;28;20042;-73
2023/01/01 05:51:33;;;;;;;58.13;37.38;;;5.80;99.90;;;;;;4990232;28;20033;-73
2023/01/01 05:53:58;;;;;;;73.60;45.45;;;5.80;99.90;;;;;;4995627;28;20042;-73
2023/01/01 05:56:25;;;;;;;85.07;52.30;;;5.80;99.90;;;;;;4996553;28;20480;-73
2023/01/01 05:58:51;;;;;;;80.20;47.60;;;5.80;99.90;;;;;;4996686;28;20034;-73
2023/01/01 06:01:22;;;;;;;59.40;36.63;;;5.80;99.90;;;;;;4995529;28;20044;-74
2023/01/01 06:03:49;;;;;;;61.40;38.45;;;5.80;99.90;;;;;;4996388;28;20031;-73
2023/01/01 06:06:20;;;;;;;77.57;49.88;;;5.70;99.90;;;;;;4996207;28;20030;-73
2023/01/01 06:08:50;;;;;;;69.55;44.40;;;5.70;99.90;;;;;;4996362;28;20030;-74
2023/01/01 06:11:17;;;;;;;63.78;39.85;;;5.70;99.90;;;;;;4996331;28;20022;-72
2023/01/01 06:13:43;;;;;;;66.85;40.58;;;5.70;99.90;;;;;;4995670;28;20027;-72
2023/01/01 06:16:09;;;;;;;62.25;40.50;;;5.60;99.90;;;;;;4979459;28;20034;-74
2023/01/01 06:18:35;;;;;;;60.28;42.30;;;5.60;99.90;;;;;;4976787;28;20375;-73
2023/01/01 06:21:13;;;;;;;77.47;46.05;;;5.60;99.90;;;;;;4962381;28;20043;-72
2023/01/01 06:23:39;;;;;;;62.90;41.70;;;5.60;99.90;;;;;;4995945;28;20402;-74
2023/01/01 06:26:14;;;;;;;52.22;38.22;;;5.50;99.90;;;;;;4996201;28;20014;-73
2023/01/01 06:28:40;;;;;;;48.42;34.03;;;5.60;99.90;;;;;;4996014;28;20045;-74
2023/01/01 06:31:08;;;;;;;53.38;37.40;;;5.60;99.90;;;;;;4995773;28;20470;-74
2023/01/01 06:33:35;;;;;;;65.30;43.47;;;5.60;99.90;;;;;;4993034;28;20065;-73
2023/01/01 06:36:03;;;;;;;56.35;38.58;;;5.60;99.90;;;;;;4994624;28;20145;-73
2023/01/01 06:38:34;;;;;;;51.90;36.28;;;5.60;99.90;;;;;;4994624;28;20049;-74
2023/01/01 06:41:05;;;;;;;51.13;36.92;;;5.60;99.90;;;;;;4994758;28;20116;-74
2023/01/01 06:43:33;;;;;;;54.03;37.42;;;5.60;99.90;;;;;;4994474;28;20030;-74
2023/01/01 06:46:04;;;;;;;52.80;40.00;;;5.60;99.90;;;;;;4994629;28;20425;-74
2023/01/01 06:48:33;;;;;;;58.13;42.33;;;5.60;99.90;;;;;;4994692;28;20022;-73
2023/01/01 06:51:08;;;;;;;63.05;45.22;;;5.60;99.90;;;;;;4995560;28;20161;-74
2023/01/01 06:53:34;;;;;;;65.00;46.58;;;5.60;99.90;;;;;;4995569;28;20058;-73
2023/01/01 06:56:00;;;;;;;64.75;46.53;;;5.70;99.90;;;;;;4995482;28;20377;-74
2023/01/01 06:58:26;;;;;;;67.20;47.50;;;5.70;99.90;;;;;;4995410;28;20026;-74
2023/01/01 07:00:52;;;;;;;72.70;51.33;;;5.80;99.90;;;;;;4995326;28;20507;-74
2023/01/01 07:03:17;;;;;;;65.82;49.60;;;5.80;99.90;;;;;;4995234;28;20023;-74
2023/01/01 07:05:43;;;;;;;72.97;50.15;;;5.90;99.90;;;;;;4995239;28;20030;-72
2023/01/01 07:08:09;;;;;;;65.05;47.42;;;5.90;99.90;;;;;;4995435;28;20053;-73
2023/01/01 07:10:35;;;;;;;72.13;50.72;;;6.00;99.90;;;;;;4995113;28;20033;-74
2023/01/01 07:13:01;;;;;;;66.97;47.22;;;6.10;99.90;;;;;;4995362;28;20027;-73
2023/01/01 07:15:27;;;;;;;64.93;45.15;;;6.20;99.90;;;;;;4995123;28;20019;-73
2023/01/01 07:17:52;;;;;;;66.43;47.65;;;6.20;99.90;;;;;;4994966;28;20510;-73
2023/01/01 07:20:18;;;;;;;70.18;47.47;;;6.40;99.90;;;;;;4994998;28;20058;-73
2023/01/01 07:22:44;;;;;;;67.55;45.60;;;6.40;99.90;;;;;;4994822;28;20046;-73
2023/01/01 07:25:14;;;;;;;61.90;43.05;;;6.60;99.90;;;;;;4995013;28;20068;-74
2023/01/01 07:27:39;;;;;;;59.97;42.50;;;6.70;99.90;;;;;;4999921;28;20030;-73
2023/01/01 07:30:06;;;;;;;82.10;52.03;;;6.80;99.90;;;;;;5005268;28;20014;-73
2023/01/01 07:32:32;;;;;;;70.90;45.88;;;7.00;99.90;;;;;;5001014;28;20030;-74
2023/01/01 07:34:57;;;;;;;87.13;51.17;;;7.10;99.90;;;;;;4977091;28;20037;-74
2023/01/01 07:37:26;;;;;;;80.05;48.95;;;7.30;99.90;;;;;;4998548;28;20034;-74
2023/01/01 07:39:52;;;;;;;83.45;51.38;;;7.40;99.90;;;;;;5006269;28;20022;-74
2023/01/01 07:42:18;;;;;;;81.20;56.90;;;7.50;99.90;;;;;;4994534;28;20034;-74
2023/01/01 07:44:44;;;;;;;98.53;63.78;;;7.60;99.90;;;;;;4994627;28;20488;-74
2023/01/01 07:47:24;;;;;;;111.05;77.57;;;7.80;99.90;;;;;;4994375;28;20023;-74
2023/01/01 07:49:51;;;;;;;124.38;77.90;;;7.90;99.90;;;;;;4997343;28;20377;-74
2023/01/01 07:52:17;;;;;;;111.70;77.82;;;8.00;99.90;;;;;;5004903;28;20022;-74
2023/01/01 07:54:43;;;;;;;113.57;80.20;;;8.10;99.90;;;;;;4995872;28;20030;-73
2023/01/01 07:57:08;;;;;;;106.80;73.28;;;8.20;99.90;;;;;;4999514;28;20073;-74
2023/01/01 07:59:34;;;;;;;107.57;69.45;;;8.30;99.90;;;;;;5004222;28;20037;-73
2023/01/01 08:02:00;;;;;;;89.38;60.90;;;8.40;99.90;;;;;;4997188;28;20040;-73
2023/01/01 08:04:26;;;;;;;60.47;41.47;;;8.50;99.90;;;;;;4996391;28;20109;-73
2023/01/01 08:06:53;;;;;;;55.90;36.28;;;8.60;99.90;;;;;;5005550;28;20109;-74
2023/01/01 08:09:19;;;;;;;74.90;48.97;;;8.70;99.90;;;;;;4993589;28;20080;-74
2023/01/01 08:11:45;;;;;;;76.60;49.63;;;8.80;99.90;;;;;;4998103;28;20030;-74
2023/01/01 08:14:11;;;;;;;66.70;45.13;;;8.90;99.90;;;;;;4993329;28;20026;-73
2023/01/01 08:16:37;;;;;;;61.20;45.33;;;9.00;99.90;;;;;;5000670;28;20026;-73
2023/01/01 08:19:03;;;;;;;63.05;41.17;;;9.10;99.90;;;;;;4998039;28;20389;-74
2023/01/01 08:21:29;;;;;;;67.22;40.50;;;9.30;99.90;;;;;;5004598;28;20181;-74
2023/01/01 08:23:56;;;;;;;57.67;38.72;;;9.40;99.90;;;;;;4996700;28;20112;-74
2023/01/01 08:26:33;;;;;;;53.95;36.33;;;9.50;99.90;;;;;;4993376;28;20034;-74
2023/01/01 08:29:02;;;;;;;52.42;37.45;;;9.60;99.90;;;;;;5001779;28;20029;-74
2023/01/01 08:31:28;;;;;;;55.38;37.33;;;9.70;99.90;;;;;;4995698;28;20033;-74
2023/01/01 08:33:54;;;;;;;56.30;37.97;;;9.80;99.90;;;;;;4992339;28;20402;-73
2023/01/01 08:36:20;;;;;;;56.67;38.25;;;9.90;99.90;;;;;;5001391;28;20065;-74
2023/01/01 08:38:46;;;;;;;62.65;42.53;;;10.00;99.90;;;;;;5000091;28;20014;-73
2023/01/01 08:41:12;;;;;;;65.18;43.58;;;10.10;99.90;;;;;;4992184;28;20457;-73
2023/01/01 08:43:37;;;;;;;66.60;45.72;;;10.30;99.90;;;;;;4994840;28;20022;-73
2023/01/01 08:46:03;;;;;;;67.97;47.38;;;10.40;99.90;;;;;;4998360;28;20030;-74
2023/01/01 08:48:29;;;;;;;71.72;48.38;;;10.50;99.90;;;;;;4993403;28;20022;-74
2023/01/01 08:50:59;;;;;;;72.07;51.40;;;10.60;99.90;;;;;;4993505;28;20026;-74
2023/01/01 08:53:26;;;;;;;64.50;44.10;;;10.80;99.90;;;;;;4992341;28;20022;-74
2023/01/01 08:56:06;;;;;;;56.72;41.10;;;10.90;99.90;;;;;;4992523;28;20084;-73
2023/01/01 08:58:37;;;;;;;62.20;42.65;;;11.00;99.90;;;;;;4992471;28;20034;-74
2023/01/01 09:01:04;;;;;;;57.15;41.20;;;11.00;99.90;;;;;;4992792;28;20386;-74
2023/01/01 09:03:29;;;;;;;59.92;41.35;;;11.20;99.90;;;;;;4997843;28;20035;-74
2023/01/01 09:05:55;;;;;;;61.50;42.75;;;11.30;99.90;;;;;;4997683;28;20021;-74
2023/01/01 09:08:22;;;;;;;63.25;43.17;;;11.30;99.90;;;;;;4992488;28;20417;-74
2023/01/01 09:10:48;;;;;;;60.13;43.47;;;11.40;99.90;;;;;;4995186;28;20030;-73
2023/01/01 09:13:16;;;;;;;62.63;43.17;;;11.60;99.90;;;;;;5002645;28;20030;-73
2023/01/01 09:15:42;;;;;;;49.17;36.03;;;11.70;99.90;;;;;;4992133;28;20052;-73
2023/01/01 09:18:09;;;;;;;49.38;36.13;;;11.80;99.90;;;;;;4992535;28;20117;-72
2023/01/01 09:20:36;;;;;;;46.72;34.63;;;11.90;99.90;;;;;;5000949;28;20030;-74
2023/01/01 09:23:02;;;;;;;55.58;37.17;;;12.00;99.90;;;;;;4981210;28;20540;-72
2023/01/01 09:25:30;;;;;;;60.78;39.42;;;12.20;99.90;;;;;;4984124;28;20015;-73
2023/01/01 09:28:05;;;;;;;51.80;35.25;;;12.30;99.90;;;;;;4976361;28;20077;-73
2023/01/01 09:30:32;;;;;;;52.15;33.05;;;12.40;99.90;;;;;;4979424;28;20039;-73
2023/01/01 09:32:58;;;;;;;46.13;32.70;;;12.40;99.90;;;;;;4983389;28;20026;-72
2023/01/01 09:35:24;;;;;;;41.35;29.00;;;12.40;99.90;;;;;;4980894;28;20085;-73
2023/01/01 09:37:50;;;;;;;44.88;28.00;;;12.60;99.90;;;;;;4983653;28;20026;-73
2023/01/01 09:40:53;;;;;;;40.40;25.20;;;12.70;99.90;;;;;;4985450;28;20030;-73
2023/01/01 09:43:34;;;;;;;33.50;23.73;;;12.80;99.90;;;;;;4981154;28;20031;-74
2023/01/01 09:46:00;;;;;;;31.33;19.88;;;12.90;99.90;;;;;;4987212;28;20022;-73
2023/01/01 09:48:29;;;;;;;29.73;19.75;;;12.90;99.90;;;;;;4993834;28;20113;-73
2023/01/01 09:50:57;;;;;;;27.95;20.00;;;12.90;99.90;;;;;;4993715;28;20520;-73
2023/01/01 09:53:47;;;;;;;35.65;22.48;;;13.00;99.90;;;;;;4977616;28;20022;-73
2023/01/01 09:56:21;;;;;;;39.83;22.90;;;13.00;99.90;;;;;;4977213;28;20041;-73
2023/01/01 09:58:47;;;;;;;38.05;23.25;;;13.10;99.90;;;;;;4977045;28;20031;-73
2023/01/01 10:01:46;;;;;;;35.47;23.75;;;13.20;99.90;;;;;;4976872;28;20031;-73
2023/01/01 10:04:36;;;;;;;36.83;25.52;;;13.20;99.90;;;;;;4977052;28;20035;-73
2023/01/01 10:07:35;;;;;;;43.15;24.10;;;13.30;99.90;;;;;;4976894;28;20038;-74
2023/01/01 10:10:19;;;;;;;35.13;23.25;;;13.40;99.90;;;;;;4976760;28;20066;-74
2023/01/01 10:12:55;;;;;;;39.85;25.10;;;13.30;99.90;;;;;;4976915;28;20105;-73
2023/01/01 10:15:24;;;;;;;38.13;25.40;;;13.20;99.90;;;;;;4977020;28;20031;-74
2023/01/01 10:17:57;;;;;;;35.42;23.45;;;13.20;99.90;;;;;;4976828;28;20045;-74
2023/01/01 10:20:26;;;;;;;33.75;24.92;;;13.20;99.90;;;;;;4974236;28;20023;-74
2023/01/01 10:22:56;;;;;;;37.58;24.27;;;13.30;99.90;;;;;;4987830;28;20052;-74
2023/01/01 10:25:28;;;;;;;33.25;22.58;;;13.30;99.90;;;;;;4995282;28;20022;-74
2023/01/01 10:28:05;;;;;;;31.70;22.90;;;13.40;99.90;;;;;;4985776;28;20072;-74
2023/01/01 10:30:31;;;;;;;33.28;21.40;;;13.50;99.90;;;;;;4994354;28;20034;-75
2023/01/01 10:32:58;;;;;;;29.15;18.73;;;13.60;99.90;;;;;;4995090;28;20026;-74
2023/01/01 10:35:37;;;;;;;30.83;19.02;;;13.50;99.90;;;;;;4994732;28;20162;-73
2023/01/01 10:38:04;;;;;;;30.63;19.63;;;13.70;99.90;;;;;;4994519;28;20030;-73
2023/01/01 10:40:31;;;;;;;29.92;19.23;;;13.80;99.90;;;;;;4993031;28;20079;-73
2023/01/01 10:42:59;;;;;;;32.65;19.73;;;13.80;99.90;;;;;;4994945;28;20034;-73
2023/01/01 10:45:32;;;;;;;27.67;19.15;;;13.80;99.90;;;;;;4994500;28;20686;-74
2023/01/01 10:48:19;;;;;;;29.75;17.88;;;13.80;99.90;;;;;;4988134;28;20376;-74
2023/01/01 10:50:49;;;;;;;34.83;20.08;;;13.80;99.90;;;;;;4994719;28;20045;-74
2023/01/01 10:53:48;;;;;;;29.45;18.58;;;13.90;99.90;;;;;;4994381;28;20028;-73
2023/01/01 10:56:22;;;;;;;27.33;18.02;;;14.10;99.90;;;;;;4991334;28;20066;-74
2023/01/01 10:58:49;;;;;;;25.20;17.23;;;14.20;99.90;;;;;;4961387;28;20367;-74
2023/01/01 11:01:23;;;;;;;25.73;18.38;;;14.20;99.90;;;;;;4991150;28;20042;-73
2023/01/01 11:03:54;;;;;;;32.05;17.02;;;14.30;99.90;;;;;;4994323;28;20031;-74
2023/01/01 11:06:22;;;;;;;31.63;17.70;;;14.40;99.90;;;;;;4994747;28;20358;-74
2023/01/01 11:08:54;;;;;;;23.80;15.18;;;14.50;99.90;;;;;;4993287;28;20035;-74
2023/01/01 11:11:26;;;;;;;23.15;14.68;;;14.50;99.90;;;;;;4991603;28;20034;-74
2023/01/01 11:13:53;;;;;;;29.83;16.10;;;14.50;99.90;;;;;;4993480;28;20104;-74
2023/01/01 11:16:20;;;;;;;24.25;15.70;;;14.60;99.90;;;;;;4992266;28;20034;-74
2023/01/01 11:18:47;;;;;;;24.40;15.15;;;14.70;99.90;;;;;;4993749;28;20027;-74
2023/01/01 11:21:20;;;;;;;21.67;13.68;;;14.70;99.90;;;;;;4993971;28;20049;-74
2023/01/01 11:23:50;;;;;;;18.33;12.23;;;14.70;99.90;;;;;;4994715;28;20019;-74
2023/01/01 11:26:20;;;;;;;19.20;11.20;;;14.80;99.90;;;;;;4994716;28;20145;-73
2023/01/01 11:29:27;;;;;;;15.65;10.40;;;14.70;99.90;;;;;;4994775;28;20033;-74
2023/01/01 11:31:54;;;;;;;19.60;11.13;;;14.80;99.90;;;;;;4953827;28;20164;-74
2023/01/01 11:34:22;;;;;;;19.95;9.73;;;14.80;99.90;;;;;;4953873;28;20050;-73
2023/01/01 11:36:49;;;;;;;19.75;10.85;;;14.80;99.90;;;;;;4953778;28;20038;-74
2023/01/01 11:39:25;;;;;;;16.52;8.88;;;14.80;99.90;;;;;;4953873;29;20051;-74
2023/01/01 11:41:54;;;;;;;16.45;9.80;;;14.80;99.90;;;;;;4953068;28;20085;-73
2023/01/01 11:44:33;;;;;;;17.77;10.65;;;14.80;99.90;;;;;;4953611;28;20028;-74
2023/01/01 11:47:00;;;;;;;18.67;10.65;;;14.80;99.90;;;;;;4953640;28;20467;-74
2023/01/01 11:49:28;;;;;;;16.50;9.05;;;14.80;99.90;;;;;;4953285;28;20031;-74
2023/01/01 11:51:54;;;;;;;22.95;12.02;;;14.90;99.90;;;;;;4953558;28;20031;-73
2023/01/01 11:54:27;;;;;;;20.20;13.07;;;14.90;99.90;;;;;;4953165;28;20094;-73
2023/01/01 11:57:01;;;;;;;16.83;10.95;;;15.00;99.90;;;;;;4953602;28;20027;-73
2023/01/01 11:59:48;;;;;;;19.00;9.73;;;15.00;99.90;;;;;;4953257;28;20043;-74
2023/01/01 12:02:43;;;;;;;16.88;8.90;;;15.10;99.90;;;;;;4953008;29;20049;-73
2023/01/01 12:05:22;;;;;;;17.67;8.00;;;15.10;99.90;;;;;;4940384;28;20050;-73
2023/01/01 12:07:49;;;;;;;16.63;9.43;;;15.10;99.90;;;;;;4979957;28;20070;-75
2023/01/01 12:10:21;;;;;;;13.85;8.50;;;15.20;99.90;;;;;;4994022;28;20022;-74
2023/01/01 12:13:10;;;;;;;19.08;9.88;;;15.30;99.90;;;;;;4993494;28;20030;-74
2023/01/01 12:15:42;;;;;;;15.30;8.68;;;15.40;99.90;;;;;;4992269;28;20048;-74
2023/01/01 12:18:21;;;;;;;19.85;10.30;;;15.40;99.90;;;;;;4990135;28;20022;-74
2023/01/01 12:20:56;;;;;;;18.65;9.90;;;15.50;99.90;;;;;;4993421;28;20034;-73
2023/01/01 12:23:22;;;;;;;21.65;11.02;;;15.50;99.90;;;;;;4994139;28;20036;-74
2023/01/01 12:26:00;;;;;;;18.15;10.93;;;15.40;99.90;;;;;;4993657;28;20113;-74
2023/01/01 12:28:37;;;;;;;19.83;10.85;;;15.40;99.90;;;;;;4993969;28;20026;-74
2023/01/01 12:31:27;;;;;;;18.17;10.52;;;15.30;99.90;;;;;;4993949;28;20062;-74
2023/01/01 12:34:13;;;;;;;21.13;10.32;;;15.20;99.90;;;;;;4993833;28;20570;-74
2023/01/01 12:36:52;;;;;;;18.85;9.43;;;15.20;99.90;;;;;;4934171;29;20054;-73
2023/01/01 12:39:18;;;;;;;19.40;11.00;;;15.30;99.90;;;;;;4933648;29;20130;-73
2023/01/01 12:42:09;;;;;;;17.27;10.48;;;15.30;99.90;;;;;;4930517;29;20207;-75
2023/01/01 12:45:06;;;;;;;17.20;10.57;;;15.30;99.90;;;;;;4932861;29;20031;-77
2023/01/01 12:47:37;;;;;;;18.10;9.63;;;15.40;99.90;;;;;;4931434;29;20388;-75
2023/01/01 12:50:41;;;;;;;22.50;10.88;;;15.50;99.90;;;;;;4933136;29;20067;-77
2023/01/01 12:53:18;;;;;;;22.75;11.35;;;15.40;99.90;;;;;;4929351;29;20066;-77